Brownfield, ME (04010)

2:01 PM EDT on July 25, 2016 (GMT -0400)
misty lane | | Change Station

Elev 404 ft 43.94 °N, 70.87 °W | Updated 3 minutes ago

Mostly Cloudy
Mostly Cloudy
86.9 °F
Feels Like 89 °F
N
6.0
Wind Variable Wind from SSW
Gusts 6.0 mph

Today
High -- | Low -- °F
--% Chance of Precip.
Yesterday
High -- | Low -- °F
Precip. -- in
Pressure 29.90 in
Visibility 10.0 miles
Clouds
Heat Index 89 °F
Dew Point 65 °F
Humidity 49%
Rainfall 0.00 in
Snow Depth Not available.
5:25 AM 8:14 PM
Waning Gibbous, 64% visible
METAR KLEW 251756Z AUTO 14007KT 10SM 28/18 A2987 RMK AO2 SLP125 T02780178 10283 20189 58018 $
Pressure 29.90 in
Visibility 10.0 miles
Clouds
Heat Index 89 °F
Dew Point 65 °F
Humidity 49%
Rainfall 0.00 in
Snow Depth Not available.
5:25 AM 8:14 PM
Waning Gibbous, 64% visible
METAR KLEW 251756Z AUTO 14007KT 10SM 28/18 A2987 RMK AO2 SLP125 T02780178 10283 20189 58018 $
Record highs are possible for parts of the Northeast Monday and Tuesday, as parts of the central U.S. take a little breather from the worst of summer's dog day heat.

Expansive high pressure in the upper atmosphere will focus on parts of the East and West this week, sending heat indices well into the triple digits from the Mid-Atlantic states into the South.

10-Day Weather Forecast

Almanac

Astronomy

Jul. 25, 2016 Rise Set
Actual Time
Civil Twilight
Nautical Twilight
Astronomical Twilight
Moon
Length of Visible Light
Length of Day
Tomorrow will be .
, % of the Moon is Illuminated

Today's Extremes

State Highs State Lows

Community

WunderPhotos

Upload Photos

1,927,364 photos uploaded!

WunderBlog® & News

Nearby

Air Quality

  Air Quality AQ Index Pollutant
Not available.

Snow Depth

Station Depth Elevation

Earthquake Activity

City Distance Mag. Time & Date
Minimum magnitude displayed is 2.5.

Coastal Water Temperatures

Place Temperature

Stations

Nearby Weather Stations

Station Location Temp. Windchill Dew Point Humidity Wind Precip. Elev Updated Type
                   

Watches & Warnings

There are currently no watches in effect.